Time;durP1;ratioP1;P1;durP2;ratioP2;P2;SDS_P1;SDS_P2;PMS_P1;PMS_P2;Temp;Humidity;BMP_temperature;BMP_pressure;BME280_temperature;BME280_humidity;BME280_pressure;Samples;Min_cycle;Max_cycle;Signal;HPM_P1;HPM_P2
2024/04/13 00:00:28;;;;;;;23.00;6.35;;;;;;;;;;5346404;26;19997;-67
2024/04/13 00:02:53;;;;;;;21.90;6.32;;;;;;;;;;5347774;26;20058;-67
2024/04/13 00:05:18;;;;;;;19.15;5.50;;;;;;;;;;5347685;26;20011;-67
2024/04/13 00:07:43;;;;;;;26.10;6.70;;;;;;;;;;5347740;26;20025;-67
2024/04/13 00:10:09;;;;;;;17.02;6.18;;;;;;;;;;5344143;26;20447;-67
2024/04/13 00:12:34;;;;;;;17.95;6.72;;;;;;;;;;5345587;26;19997;-67
2024/04/13 00:14:59;;;;;;;20.48;6.18;;;;;;;;;;5347404;26;20450;-67
2024/04/13 00:17:25;;;;;;;16.83;8.15;;;;;;;;;;5344708;26;20001;-67
2024/04/13 00:19:51;;;;;;;19.95;5.53;;;;;;;;;;5347602;26;19993;-68
2024/04/13 00:22:17;;;;;;;21.50;6.18;;;;;;;;;;5345277;26;20001;-67
2024/04/13 00:24:43;;;;;;;15.77;7.28;;;;;;;;;;5347078;26;20012;-67
2024/04/13 00:27:08;;;;;;;15.82;6.30;;;;;;;;;;5365697;21;20326;-65
2024/04/13 00:29:33;;;;;;;19.73;8.05;;;;;;;;;;5346908;26;20406;-67
2024/04/13 00:31:59;;;;;;;18.75;7.05;;;;;;;;;;5346908;26;19997;-67
2024/04/13 00:34:24;;;;;;;17.05;5.70;;;;;;;;;;5346566;26;20008;-67
2024/04/13 00:36:50;;;;;;;25.35;7.95;;;;;;;;;;5346629;26;20012;-67
2024/04/13 00:39:15;;;;;;;21.42;6.47;;;;;;;;;;5327653;26;19994;-69
2024/04/13 00:41:40;;;;;;;14.30;5.72;;;;;;;;;;5334980;26;20010;-67
2024/04/13 00:44:05;;;;;;;21.45;8.30;;;;;;;;;;5324401;26;19993;-67
2024/04/13 00:46:32;;;;;;;14.43;7.07;;;;;;;;;;5346286;26;20346;-67
2024/04/13 00:48:59;;;;;;;16.77;6.88;;;;;;;;;;5346340;26;20029;-67
2024/04/13 00:51:26;;;;;;;15.88;5.60;;;;;;;;;;5294960;27;20467;-67
2024/04/13 00:53:52;;;;;;;18.40;5.90;;;;;;;;;;5312433;27;20068;-67
2024/04/13 00:56:18;;;;;;;18.10;6.47;;;;;;;;;;5282051;27;19998;-67
2024/04/13 00:58:43;;;;;;;13.68;5.00;;;;;;;;;;5312441;27;19997;-67
2024/04/13 01:01:10;;;;;;;18.30;6.90;;;;;;;;;;5281929;27;20452;-67
2024/04/13 01:03:38;;;;;;;27.27;7.60;;;;;;;;;;5309810;27;20002;-67
2024/04/13 01:06:06;;;;;;;27.75;8.18;;;;;;;;;;5312132;27;20013;-69
2024/04/13 01:08:34;;;;;;;27.38;8.27;;;;;;;;;;5282283;27;19997;-67
2024/04/13 01:11:00;;;;;;;26.90;8.27;;;;;;;;;;5310229;27;20006;-67
2024/04/13 01:13:26;;;;;;;24.65;7.43;;;;;;;;;;5314669;27;20068;-67
2024/04/13 01:15:51;;;;;;;25.70;7.63;;;;;;;;;;5313234;27;19998;-67
2024/04/13 01:18:17;;;;;;;23.33;7.47;;;;;;;;;;5315367;27;19998;-67
2024/04/13 01:20:43;;;;;;;31.48;8.13;;;;;;;;;;5315410;27;20089;-68
2024/04/13 01:23:11;;;;;;;29.73;8.60;;;;;;;;;;5314663;27;19997;-69
2024/04/13 01:25:40;;;;;;;26.05;7.15;;;;;;;;;;5315015;27;20067;-69
2024/04/13 01:28:06;;;;;;;25.33;8.68;;;;;;;;;;5315404;27;20012;-69
2024/04/13 01:30:32;;;;;;;21.42;8.10;;;;;;;;;;5315327;27;20451;-69
2024/04/13 01:32:58;;;;;;;29.58;9.02;;;;;;;;;;5285102;27;20471;-69
2024/04/13 01:35:23;;;;;;;31.67;12.55;;;;;;;;;;5314475;27;20347;-68
2024/04/13 01:37:48;;;;;;;33.22;10.63;;;;;;;;;;5315138;27;20008;-69
2024/04/13 01:40:14;;;;;;;34.08;10.80;;;;;;;;;;5315088;27;20001;-69
2024/04/13 01:42:44;;;;;;;32.42;10.90;;;;;;;;;;5284939;27;19993;-67
2024/04/13 01:45:09;;;;;;;44.00;13.45;;;;;;;;;;5314469;27;20039;-69
2024/04/13 01:47:35;;;;;;;40.70;13.38;;;;;;;;;;5314964;27;19997;-69
2024/04/13 01:50:01;;;;;;;39.17;12.88;;;;;;;;;;5315029;27;20013;-69
2024/04/13 01:52:27;;;;;;;42.08;13.55;;;;;;;;;;5314869;27;19998;-69
2024/04/13 01:54:52;;;;;;;46.72;16.00;;;;;;;;;;5314867;27;20008;-69
2024/04/13 01:57:18;;;;;;;46.92;16.70;;;;;;;;;;5313085;27;20380;-68
2024/04/13 01:59:44;;;;;;;39.05;12.80;;;;;;;;;;5314131;27;19997;-69
2024/04/13 02:02:10;;;;;;;39.97;13.27;;;;;;;;;;5314742;27;19998;-69
2024/04/13 02:04:36;;;;;;;42.88;13.45;;;;;;;;;;5284703;27;20001;-69
2024/04/13 02:07:01;;;;;;;39.05;13.27;;;;;;;;;;5314686;27;20068;-69
2024/04/13 02:09:27;;;;;;;33.38;14.63;;;;;;;;;;5284626;27;19997;-69
2024/04/13 02:11:52;;;;;;;43.88;13.32;;;;;;;;;;5314608;27;20074;-69
2024/04/13 02:14:18;;;;;;;42.90;15.63;;;;;;;;;;5284244;27;20321;-69
2024/04/13 02:16:43;;;;;;;39.72;14.68;;;;;;;;;;5314498;27;19998;-69
2024/04/13 02:19:08;;;;;;;39.88;12.60;;;;;;;;;;5314536;27;19998;-68
2024/04/13 02:21:34;;;;;;;35.13;12.07;;;;;;;;;;5314064;27;20002;-69
2024/04/13 02:23:59;;;;;;;44.03;14.40;;;;;;;;;;5313771;27;20355;-69
2024/04/13 02:26:24;;;;;;;53.22;15.23;;;;;;;;;;5314522;27;20001;-69
2024/04/13 02:28:49;;;;;;;39.40;13.07;;;;;;;;;;5314413;27;20025;-69
2024/04/13 02:31:17;;;;;;;42.28;12.70;;;;;;;;;;5314023;27;20071;-69
2024/04/13 02:33:42;;;;;;;36.85;12.75;;;;;;;;;;5314425;27;20399;-69
2024/04/13 02:36:08;;;;;;;44.63;13.48;;;;;;;;;;5284335;27;19997;-69
2024/04/13 02:38:33;;;;;;;47.30;13.38;;;;;;;;;;5314345;27;20010;-69
2024/04/13 02:41:00;;;;;;;36.70;12.85;;;;;;;;;;5313084;26;20045;-69
2024/04/13 02:43:31;;;;;;;37.53;12.00;;;;;;;;;;5307124;26;20073;-69
2024/04/13 02:46:07;;;;;;;38.30;12.85;;;;;;;;;;5298660;26;20006;-69
2024/04/13 02:48:32;;;;;;;44.85;15.65;;;;;;;;;;5314228;27;20350;-69
2024/04/13 02:50:57;;;;;;;40.60;12.73;;;;;;;;;;5288867;27;19994;-69
2024/04/13 02:53:23;;;;;;;39.15;12.35;;;;;;;;;;5313705;27;19997;-68
2024/04/13 02:55:48;;;;;;;36.33;12.68;;;;;;;;;;5313472;27;19990;-69
2024/04/13 02:58:14;;;;;;;34.10;12.35;;;;;;;;;;5283696;27;20501;-69
2024/04/13 03:00:39;;;;;;;44.42;16.23;;;;;;;;;;5313987;27;20454;-69
2024/04/13 03:03:04;;;;;;;44.75;15.23;;;;;;;;;;5313882;26;20455;-69
2024/04/13 03:05:31;;;;;;;42.75;13.93;;;;;;;;;;5313344;27;20006;-68
2024/04/13 03:07:56;;;;;;;36.85;12.57;;;;;;;;;;5313621;27;20010;-69
2024/04/13 03:10:21;;;;;;;41.28;13.57;;;;;;;;;;5313906;27;19994;-69
2024/04/13 03:12:46;;;;;;;46.08;14.27;;;;;;;;;;5314391;27;19998;-69
2024/04/13 03:15:12;;;;;;;37.15;14.13;;;;;;;;;;5283745;27;19993;-69
2024/04/13 03:17:38;;;;;;;40.67;15.30;;;;;;;;;;5315157;26;20438;-69
2024/04/13 03:20:05;;;;;;;39.72;15.48;;;;;;;;;;5313854;27;20467;-69
2024/04/13 03:22:31;;;;;;;38.00;13.40;;;;;;;;;;5313712;27;20031;-69
2024/04/13 03:24:57;;;;;;;37.63;12.93;;;;;;;;;;5313112;27;20080;-69
2024/04/13 03:27:22;;;;;;;44.33;12.55;;;;;;;;;;5283101;27;20483;-69
2024/04/13 03:29:48;;;;;;;43.80;14.23;;;;;;;;;;5313168;27;19998;-69
2024/04/13 03:32:13;;;;;;;36.83;12.05;;;;;;;;;;5315561;26;19994;-68
2024/04/13 03:34:38;;;;;;;35.72;13.07;;;;;;;;;;5312844;27;19997;-69
2024/04/13 03:37:03;;;;;;;37.40;13.02;;;;;;;;;;5313491;27;19994;-69
2024/04/13 03:39:29;;;;;;;30.10;12.73;;;;;;;;;;5313378;27;19998;-69
2024/04/13 03:41:55;;;;;;;34.53;11.77;;;;;;;;;;5313292;27;20479;-69
2024/04/13 03:44:21;;;;;;;41.25;12.98;;;;;;;;;;5313281;27;20010;-68
2024/04/13 03:46:46;;;;;;;32.92;11.95;;;;;;;;;;5335322;26;19997;-69
2024/04/13 03:49:12;;;;;;;42.70;12.20;;;;;;;;;;5347913;26;20008;-69
2024/04/13 03:51:37;;;;;;;44.60;11.52;;;;;;;;;;5317087;26;20117;-69
2024/04/13 03:54:03;;;;;;;38.42;12.63;;;;;;;;;;5347809;26;20365;-69
2024/04/13 03:56:28;;;;;;;45.92;12.50;;;;;;;;;;5317075;26;20462;-69
2024/04/13 03:58:54;;;;;;;39.42;10.95;;;;;;;;;;5347169;26;20028;-69
2024/04/13 04:01:19;;;;;;;31.95;10.93;;;;;;;;;;5347771;26;20083;-69
2024/04/13 04:03:44;;;;;;;50.95;14.85;;;;;;;;;;5347896;26;20025;-69
2024/04/13 04:06:10;;;;;;;35.92;13.07;;;;;;;;;;5341243;26;20045;-69
2024/04/13 04:08:35;;;;;;;47.97;12.30;;;;;;;;;;5346780;26;20004;-69
2024/04/13 04:11:00;;;;;;;38.70;12.95;;;;;;;;;;5347266;26;20059;-69
2024/04/13 04:13:25;;;;;;;31.58;12.20;;;;;;;;;;5347564;26;20006;-69
2024/04/13 04:15:54;;;;;;;47.90;12.77;;;;;;;;;;5346532;26;20021;-69
2024/04/13 04:18:20;;;;;;;36.85;12.68;;;;;;;;;;5347227;26;20015;-69
2024/04/13 04:20:46;;;;;;;69.15;15.75;;;;;;;;;;5316830;26;20336;-69
2024/04/13 04:23:11;;;;;;;47.72;16.55;;;;;;;;;;5317024;26;20531;-69
2024/04/13 04:25:37;;;;;;;43.33;14.95;;;;;;;;;;5346389;26;20009;-69
2024/04/13 04:28:02;;;;;;;45.17;14.88;;;;;;;;;;5316995;26;20004;-69
2024/04/13 04:30:27;;;;;;;38.55;14.15;;;;;;;;;;5347306;26;20446;-69
2024/04/13 04:32:53;;;;;;;37.25;13.13;;;;;;;;;;5347194;26;20454;-69
2024/04/13 04:35:18;;;;;;;54.35;14.20;;;;;;;;;;5329989;26;20013;-69
2024/04/13 04:37:43;;;;;;;58.40;14.30;;;;;;;;;;5312379;27;20013;-69
2024/04/13 04:40:09;;;;;;;39.83;13.15;;;;;;;;;;5311614;27;20006;-69
2024/04/13 04:42:34;;;;;;;34.00;11.63;;;;;;;;;;5312702;27;20009;-69
2024/04/13 04:44:59;;;;;;;38.35;11.68;;;;;;;;;;5312463;27;20014;-69
2024/04/13 04:47:25;;;;;;;49.15;12.88;;;;;;;;;;5311520;27;20005;-69
2024/04/13 04:49:50;;;;;;;37.08;11.75;;;;;;;;;;5311129;27;20468;-69
2024/04/13 04:52:17;;;;;;;39.00;12.25;;;;;;;;;;5312314;27;20004;-69
2024/04/13 04:54:42;;;;;;;39.70;11.27;;;;;;;;;;5312313;27;20012;-68
2024/04/13 04:57:08;;;;;;;30.83;10.27;;;;;;;;;;5282112;27;20006;-69
2024/04/13 04:59:33;;;;;;;41.95;10.48;;;;;;;;;;5312218;27;20555;-69
2024/04/13 05:01:59;;;;;;;34.80;9.52;;;;;;;;;;5312107;27;20592;-69
2024/04/13 05:04:24;;;;;;;38.92;10.25;;;;;;;;;;5311688;27;20002;-68
2024/04/13 05:06:49;;;;;;;42.05;10.15;;;;;;;;;;5312039;27;19998;-69
2024/04/13 05:09:15;;;;;;;30.20;9.18;;;;;;;;;;5311920;27;20001;-69
2024/04/13 05:11:40;;;;;;;32.78;9.63;;;;;;;;;;5311937;27;20317;-69
2024/04/13 05:14:07;;;;;;;30.30;8.32;;;;;;;;;;5311243;27;20009;-68
2024/04/13 05:16:33;;;;;;;30.95;10.75;;;;;;;;;;5312063;27;20372;-69
2024/04/13 05:18:58;;;;;;;34.75;9.02;;;;;;;;;;5311945;27;20002;-68
2024/04/13 05:21:23;;;;;;;39.33;8.05;;;;;;;;;;5311816;27;20011;-69
2024/04/13 05:23:48;;;;;;;35.05;8.70;;;;;;;;;;5311112;27;20034;-68
2024/04/13 05:26:14;;;;;;;26.90;8.02;;;;;;;;;;5311853;27;20012;-69
2024/04/13 05:28:39;;;;;;;28.65;7.53;;;;;;;;;;5311862;27;20008;-69
2024/04/13 05:31:09;;;;;;;21.13;6.93;;;;;;;;;;5311948;27;20033;-69
2024/04/13 05:33:35;;;;;;;33.33;6.63;;;;;;;;;;5280776;27;20525;-68
2024/04/13 05:36:00;;;;;;;31.13;6.65;;;;;;;;;;5311671;27;20452;-68
2024/04/13 05:38:26;;;;;;;28.90;6.60;;;;;;;;;;5311565;27;19998;-69
2024/04/13 05:40:52;;;;;;;22.80;6.32;;;;;;;;;;5311627;27;20082;-69
2024/04/13 05:43:17;;;;;;;38.78;8.10;;;;;;;;;;5311038;27;20337;-69
2024/04/13 05:45:43;;;;;;;25.35;5.22;;;;;;;;;;5311286;27;20072;-68
2024/04/13 05:48:09;;;;;;;25.90;4.60;;;;;;;;;;5311646;27;20045;-68
2024/04/13 05:50:34;;;;;;;29.98;5.93;;;;;;;;;;5311413;27;20068;-69
2024/04/13 05:52:59;;;;;;;23.13;5.53;;;;;;;;;;5311624;27;20070;-68
2024/04/13 05:55:25;;;;;;;18.80;5.40;;;;;;;;;;5311029;27;20012;-67
2024/04/13 05:57:50;;;;;;;26.27;6.10;;;;;;;;;;5311011;27;20016;-69
2024/04/13 06:00:15;;;;;;;17.65;5.03;;;;;;;;;;5314336;27;20005;-69
2024/04/13 06:02:41;;;;;;;28.45;5.85;;;;;;;;;;5314806;27;20008;-69
2024/04/13 06:05:07;;;;;;;20.58;5.22;;;;;;;;;;5314671;27;19998;-69
2024/04/13 06:07:32;;;;;;;18.92;5.07;;;;;;;;;;5314697;27;19997;-69
2024/04/13 06:09:57;;;;;;;31.10;6.40;;;;;;;;;;5313869;27;19997;-69
2024/04/13 06:12:22;;;;;;;23.13;4.78;;;;;;;;;;5314365;27;20008;-69
2024/04/13 06:14:51;;;;;;;27.20;5.40;;;;;;;;;;5314242;27;20308;-68
2024/04/13 06:17:17;;;;;;;24.40;5.38;;;;;;;;;;5314286;27;20414;-68
2024/04/13 06:19:43;;;;;;;24.70;5.85;;;;;;;;;;5314161;27;20009;-69
2024/04/13 06:22:08;;;;;;;25.15;4.50;;;;;;;;;;5313796;27;20068;-68
2024/04/13 06:24:37;;;;;;;23.48;4.50;;;;;;;;;;5314299;27;20001;-69
2024/04/13 06:27:03;;;;;;;21.08;4.03;;;;;;;;;;5368233;21;20323;-67
2024/04/13 06:29:28;;;;;;;17.05;4.75;;;;;;;;;;5383669;26;20007;-67
2024/04/13 06:31:53;;;;;;;21.80;6.43;;;;;;;;;;5383418;26;20004;-67
2024/04/13 06:34:19;;;;;;;17.02;4.25;;;;;;;;;;5383505;26;19992;-67
2024/04/13 06:36:44;;;;;;;32.15;5.55;;;;;;;;;;5382657;26;20073;-66
2024/04/13 06:39:14;;;;;;;25.05;6.07;;;;;;;;;;5383861;26;20420;-66
2024/04/13 06:41:40;;;;;;;26.63;5.50;;;;;;;;;;5383304;26;20065;-67
2024/04/13 06:44:05;;;;;;;27.00;4.30;;;;;;;;;;5352076;26;20453;-67
2024/04/13 06:46:30;;;;;;;29.25;6.00;;;;;;;;;;5383348;26;20032;-66
2024/04/13 06:48:55;;;;;;;22.52;4.50;;;;;;;;;;5383295;26;20016;-67
2024/04/13 06:51:21;;;;;;;30.05;6.63;;;;;;;;;;5383415;26;20007;-67
2024/04/13 06:53:46;;;;;;;30.75;5.05;;;;;;;;;;5383241;26;20002;-66
2024/04/13 06:56:13;;;;;;;17.88;5.22;;;;;;;;;;5383504;26;20016;-66
2024/04/13 06:58:38;;;;;;;17.27;4.00;;;;;;;;;;5382573;26;20003;-67
2024/04/13 07:01:03;;;;;;;20.00;5.20;;;;;;;;;;5383132;26;20412;-66
2024/04/13 07:03:29;;;;;;;22.67;4.55;;;;;;;;;;5383173;26;20003;-66
2024/04/13 07:05:58;;;;;;;25.80;6.25;;;;;;;;;;5383078;26;20032;-66
2024/04/13 07:08:24;;;;;;;26.17;5.32;;;;;;;;;;5352319;26;20011;-66
2024/04/13 07:10:50;;;;;;;24.73;4.22;;;;;;;;;;5382055;26;20407;-66
2024/04/13 07:13:16;;;;;;;18.45;4.53;;;;;;;;;;5383040;26;20000;-66
2024/04/13 07:15:41;;;;;;;15.93;4.95;;;;;;;;;;5383196;26;20074;-67
2024/04/13 07:18:08;;;;;;;21.42;4.75;;;;;;;;;;5381249;26;20353;-66
2024/04/13 07:20:33;;;;;;;27.50;5.13;;;;;;;;;;5382838;26;19997;-66
2024/04/13 07:22:59;;;;;;;23.02;4.30;;;;;;;;;;5382810;26;20504;-66
2024/04/13 07:25:24;;;;;;;17.80;4.00;;;;;;;;;;5382304;26;20000;-66
2024/04/13 07:27:49;;;;;;;18.33;3.78;;;;;;;;;;5382967;26;20007;-66
2024/04/13 07:30:15;;;;;;;22.27;5.63;;;;;;;;;;5382865;26;19996;-67
2024/04/13 07:32:40;;;;;;;17.75;4.20;;;;;;;;;;5382692;26;19997;-66
2024/04/13 07:35:06;;;;;;;18.42;4.15;;;;;;;;;;5382136;26;20434;-66
2024/04/13 07:37:31;;;;;;;13.57;5.20;;;;;;;;;;5382850;26;20359;-67
2024/04/13 07:39:56;;;;;;;20.48;4.95;;;;;;;;;;5382629;26;20027;-66
2024/04/13 07:42:21;;;;;;;30.50;4.13;;;;;;;;;;5377594;26;20470;-67
2024/04/13 07:44:47;;;;;;;20.20;4.32;;;;;;;;;;5380968;26;20048;-66
2024/04/13 07:47:12;;;;;;;17.27;4.55;;;;;;;;;;5382267;26;20107;-66
2024/04/13 07:49:37;;;;;;;17.83;4.25;;;;;;;;;;5381734;26;20007;-67
2024/04/13 07:52:03;;;;;;;12.32;4.10;;;;;;;;;;5382770;26;20012;-67
2024/04/13 07:54:28;;;;;;;16.88;3.78;;;;;;;;;;5382399;26;19996;-67
2024/04/13 07:56:53;;;;;;;18.40;3.70;;;;;;;;;;5351152;26;20473;-67
2024/04/13 07:59:18;;;;;;;15.40;3.80;;;;;;;;;;5381694;26;20025;-67
2024/04/13 08:01:44;;;;;;;21.48;4.20;;;;;;;;;;5382490;26;20024;-67
2024/04/13 08:04:09;;;;;;;23.95;4.20;;;;;;;;;;5382439;26;20046;-67
2024/04/13 08:06:36;;;;;;;25.55;5.07;;;;;;;;;;5382406;26;20032;-67
2024/04/13 08:09:02;;;;;;;22.58;4.25;;;;;;;;;;5381752;26;20446;-67
2024/04/13 08:11:27;;;;;;;19.13;5.13;;;;;;;;;;5382396;26;20010;-67
2024/04/13 08:13:53;;;;;;;25.02;4.45;;;;;;;;;;5382436;26;19992;-67
2024/04/13 08:16:18;;;;;;;14.02;3.83;;;;;;;;;;5382336;26;20008;-67
2024/04/13 08:18:44;;;;;;;10.30;4.10;;;;;;;;;;5382299;26;20456;-67
2024/04/13 08:21:09;;;;;;;21.58;5.03;;;;;;;;;;5381176;26;19996;-67
2024/04/13 08:23:34;;;;;;;20.15;3.85;;;;;;;;;;5382050;26;20073;-67
2024/04/13 08:26:03;;;;;;;10.55;3.92;;;;;;;;;;5382302;26;20346;-67
2024/04/13 08:28:29;;;;;;;16.33;4.10;;;;;;;;;;5382513;26;20010;-67
2024/04/13 08:30:55;;;;;;;24.75;4.35;;;;;;;;;;5382456;26;20012;-67
2024/04/13 08:33:20;;;;;;;20.95;4.88;;;;;;;;;;5382399;26;20000;-67
2024/04/13 08:35:46;;;;;;;32.38;4.55;;;;;;;;;;5381759;26;20073;-67
2024/04/13 08:38:11;;;;;;;20.75;3.38;;;;;;;;;;5382179;26;19996;-67
2024/04/13 08:40:41;;;;;;;31.27;4.15;;;;;;;;;;5382236;26;20449;-67
2024/04/13 08:43:07;;;;;;;14.30;3.90;;;;;;;;;;5381191;26;20015;-67
2024/04/13 08:45:34;;;;;;;20.73;4.30;;;;;;;;;;5381960;26;19996;-67
2024/04/13 08:48:01;;;;;;;13.23;3.85;;;;;;;;;;5381787;26;20011;-67
2024/04/13 08:50:27;;;;;;;25.58;5.32;;;;;;;;;;5381647;26;20036;-67
2024/04/13 08:52:52;;;;;;;19.10;4.28;;;;;;;;;;5351036;26;20523;-67
2024/04/13 08:55:19;;;;;;;15.75;3.42;;;;;;;;;;5350621;26;20608;-67
2024/04/13 08:57:45;;;;;;;24.35;4.22;;;;;;;;;;5350850;26;20042;-67
2024/04/13 09:00:13;;;;;;;14.05;3.60;;;;;;;;;;5350783;26;20000;-67
2024/04/13 09:02:38;;;;;;;25.10;4.85;;;;;;;;;;5351429;26;20000;-67
2024/04/13 09:05:07;;;;;;;16.63;4.85;;;;;;;;;;5381667;26;20473;-67
2024/04/13 09:07:35;;;;;;;18.00;3.67;;;;;;;;;;5380932;26;20008;-67
2024/04/13 09:10:02;;;;;;;12.82;3.45;;;;;;;;;;5381364;26;19993;-67
2024/04/13 09:12:27;;;;;;;11.48;3.30;;;;;;;;;;5350652;26;20015;-67
2024/04/13 09:14:53;;;;;;;14.10;3.83;;;;;;;;;;5381440;26;20457;-67
2024/04/13 09:17:19;;;;;;;17.25;3.97;;;;;;;;;;5380577;26;20012;-67
2024/04/13 09:19:45;;;;;;;23.23;4.25;;;;;;;;;;5350605;26;20023;-67
2024/04/13 09:22:10;;;;;;;23.77;5.30;;;;;;;;;;5381267;26;20346;-67
2024/04/13 09:24:42;;;;;;;16.02;3.70;;;;;;;;;;5350454;26;20043;-67
2024/04/13 09:27:17;;;;;;;13.30;3.63;;;;;;;;;;5380266;26;20000;-67
2024/04/13 09:29:43;;;;;;;19.17;4.50;;;;;;;;;;5381002;26;20012;-67
2024/04/13 09:32:08;;;;;;;16.88;4.43;;;;;;;;;;5381089;26;20244;-67
2024/04/13 09:34:36;;;;;;;15.75;4.85;;;;;;;;;;5384522;26;20073;-67
2024/04/13 09:37:07;;;;;;;16.77;4.85;;;;;;;;;;5383686;26;20337;-67
2024/04/13 09:39:32;;;;;;;15.30;3.58;;;;;;;;;;5384230;26;20011;-67
2024/04/13 09:41:57;;;;;;;9.50;3.47;;;;;;;;;;5384392;26;19997;-67
2024/04/13 09:44:29;;;;;;;16.65;2.97;;;;;;;;;;5384291;26;19997;-67
2024/04/13 09:46:55;;;;;;;20.02;4.30;;;;;;;;;;5384451;26;20032;-67
2024/04/13 09:49:21;;;;;;;14.75;3.95;;;;;;;;;;5352914;26;20000;-67
2024/04/13 09:51:46;;;;;;;15.70;4.00;;;;;;;;;;5384263;26;20375;-67
2024/04/13 09:54:13;;;;;;;15.18;3.53;;;;;;;;;;5353536;26;20032;-67
2024/04/13 09:56:39;;;;;;;15.90;5.43;;;;;;;;;;5352741;26;20008;-67
2024/04/13 09:59:04;;;;;;;12.77;3.53;;;;;;;;;;5353416;26;20000;-67
2024/04/13 10:01:30;;;;;;;20.20;3.90;;;;;;;;;;5353129;26;20053;-67
2024/04/13 10:03:55;;;;;;;16.80;4.88;;;;;;;;;;5384050;26;20000;-68
2024/04/13 10:06:21;;;;;;;8.18;3.10;;;;;;;;;;5353011;26;20000;-68
2024/04/13 10:08:47;;;;;;;15.23;3.28;;;;;;;;;;5352494;26;20540;-68
2024/04/13 10:11:14;;;;;;;11.50;3.25;;;;;;;;;;5383864;26;20013;-68
2024/04/13 10:13:42;;;;;;;14.50;2.65;;;;;;;;;;5353066;26;20004;-68
2024/04/13 10:16:08;;;;;;;15.32;2.75;;;;;;;;;;5383911;26;20469;-68
2024/04/13 10:18:33;;;;;;;12.40;3.53;;;;;;;;;;5353001;26;20011;-68
2024/04/13 10:21:02;;;;;;;17.48;4.47;;;;;;;;;;5352326;26;19996;-68
2024/04/13 10:23:38;;;;;;;16.42;3.55;;;;;;;;;;5352978;26;20074;-68
2024/04/13 10:26:04;;;;;;;13.35;3.65;;;;;;;;;;5352991;26;20000;-68
2024/04/13 10:28:30;;;;;;;15.70;4.00;;;;;;;;;;5383793;26;20412;-68
2024/04/13 10:30:56;;;;;;;13.95;4.03;;;;;;;;;;5383758;26;19992;-68
2024/04/13 10:33:27;;;;;;;19.77;3.97;;;;;;;;;;5383757;26;20000;-68
2024/04/13 10:36:07;;;;;;;11.63;3.67;;;;;;;;;;5352175;26;20000;-68
2024/04/13 10:38:33;;;;;;;19.63;3.70;;;;;;;;;;5383520;26;20004;-68
2024/04/13 10:40:59;;;;;;;13.60;3.10;;;;;;;;;;5352795;26;20006;-68
2024/04/13 10:43:25;;;;;;;19.10;3.20;;;;;;;;;;5352833;26;20000;-68
2024/04/13 10:45:54;;;;;;;15.30;3.65;;;;;;;;;;5382230;26;20007;-68
2024/04/13 10:48:20;;;;;;;18.90;4.90;;;;;;;;;;5352511;26;20008;-68
2024/04/13 10:50:46;;;;;;;16.27;4.95;;;;;;;;;;5383543;26;20020;-68
2024/04/13 10:53:12;;;;;;;10.77;4.13;;;;;;;;;;5383413;26;20338;-68
2024/04/13 10:55:38;;;;;;;14.30;4.60;;;;;;;;;;5382724;26;20040;-68
2024/04/13 10:58:04;;;;;;;15.65;3.28;;;;;;;;;;5352612;26;19996;-68
2024/04/13 11:00:29;;;;;;;14.07;3.08;;;;;;;;;;5383269;26;20015;-68
2024/04/13 11:02:54;;;;;;;17.42;3.60;;;;;;;;;;5383379;26;19993;-68
2024/04/13 11:05:19;;;;;;;18.48;4.45;;;;;;;;;;5383143;26;20011;-68
2024/04/13 11:07:45;;;;;;;15.25;3.55;;;;;;;;;;5382409;26;19996;-68
2024/04/13 11:10:10;;;;;;;16.13;3.22;;;;;;;;;;5383304;26;20008;-68
2024/04/13 11:12:35;;;;;;;15.70;4.65;;;;;;;;;;5383194;26;20011;-68
2024/04/13 11:15:01;;;;;;;12.98;2.78;;;;;;;;;;5383275;26;20020;-68
2024/04/13 11:17:26;;;;;;;15.73;3.63;;;;;;;;;;5382651;26;20004;-68
2024/04/13 11:19:51;;;;;;;13.82;2.83;;;;;;;;;;5383098;26;20074;-68
2024/04/13 11:22:17;;;;;;;21.75;4.88;;;;;;;;;;5383107;26;20337;-67
2024/04/13 11:24:43;;;;;;;10.82;4.07;;;;;;;;;;5382994;26;20004;-68
2024/04/13 11:27:08;;;;;;;19.05;4.13;;;;;;;;;;5383043;26;20578;-67
2024/04/13 11:29:34;;;;;;;12.75;4.45;;;;;;;;;;5382192;26;20024;-68
2024/04/13 11:32:00;;;;;;;14.10;4.00;;;;;;;;;;5382867;26;20457;-68
2024/04/13 11:34:25;;;;;;;11.57;3.65;;;;;;;;;;5352149;26;20042;-68
2024/04/13 11:37:00;;;;;;;16.20;3.22;;;;;;;;;;5382948;26;20028;-68
2024/04/13 11:39:25;;;;;;;18.67;4.25;;;;;;;;;;5352402;26;20383;-68
2024/04/13 11:41:52;;;;;;;15.30;4.32;;;;;;;;;;5382429;26;19996;-68
2024/04/13 11:44:18;;;;;;;10.98;3.67;;;;;;;;;;5382768;26;20028;-68
2024/04/13 11:46:43;;;;;;;14.65;3.75;;;;;;;;;;5382744;26;20482;-68
2024/04/13 11:49:09;;;;;;;20.05;4.35;;;;;;;;;;5382745;26;19996;-68
2024/04/13 11:51:34;;;;;;;12.02;3.70;;;;;;;;;;5351184;26;20449;-68
2024/04/13 11:54:00;;;;;;;19.25;4.00;;;;;;;;;;5351923;26;20000;-68
2024/04/13 11:56:25;;;;;;;17.58;4.00;;;;;;;;;;5381072;26;20419;-68
2024/04/13 11:58:53;;;;;;;11.32;3.60;;;;;;;;;;5382587;26;19996;-68
2024/04/13 12:01:18;;;;;;;10.48;3.97;;;;;;;;;;5382134;26;20361;-68
2024/04/13 12:03:43;;;;;;;16.13;3.58;;;;;;;;;;5382405;26;19997;-68
2024/04/13 12:06:09;;;;;;;16.88;3.85;;;;;;;;;;5382393;26;19996;-68
2024/04/13 12:08:34;;;;;;;17.48;4.38;;;;;;;;;;5351693;26;20020;-68
2024/04/13 12:10:59;;;;;;;17.05;4.30;;;;;;;;;;5382286;26;20432;-68
2024/04/13 12:13:27;;;;;;;15.55;3.80;;;;;;;;;;5382242;26;19996;-68
2024/04/13 12:15:52;;;;;;;22.77;4.20;;;;;;;;;;5381869;26;20000;-68
2024/04/13 12:18:18;;;;;;;15.50;3.85;;;;;;;;;;5382091;26;20040;-67
2024/04/13 12:20:43;;;;;;;13.68;3.88;;;;;;;;;;5382422;26;20469;-68
2024/04/13 12:23:09;;;;;;;11.20;3.67;;;;;;;;;;5382088;26;20000;-67
2024/04/13 12:25:34;;;;;;;12.68;4.38;;;;;;;;;;5382084;26;20004;-67
2024/04/13 12:27:59;;;;;;;14.68;3.50;;;;;;;;;;5382040;26;20000;-68
2024/04/13 12:30:25;;;;;;;15.98;4.22;;;;;;;;;;5381436;26;19996;-68
2024/04/13 12:32:50;;;;;;;11.57;3.10;;;;;;;;;;5382033;26;20007;-67
2024/04/13 12:35:17;;;;;;;11.95;3.40;;;;;;;;;;5381962;26;20006;-68
2024/04/13 12:37:43;;;;;;;19.17;4.00;;;;;;;;;;5377403;26;19992;-68
2024/04/13 12:40:09;;;;;;;22.80;4.18;;;;;;;;;;5379906;26;20010;-68
2024/04/13 12:42:34;;;;;;;21.98;3.30;;;;;;;;;;5380154;26;20000;-67
2024/04/13 12:44:59;;;;;;;13.30;4.75;;;;;;;;;;5379484;26;20001;-68
2024/04/13 12:47:25;;;;;;;13.45;3.88;;;;;;;;;;5381219;26;19993;-67
2024/04/13 12:49:52;;;;;;;19.73;5.78;;;;;;;;;;5381712;26;20347;-68
2024/04/13 12:52:17;;;;;;;14.18;4.50;;;;;;;;;;5351032;26;20031;-68
2024/04/13 12:54:43;;;;;;;15.95;3.78;;;;;;;;;;5350427;26;19988;-68
2024/04/13 12:57:08;;;;;;;19.20;4.60;;;;;;;;;;5381061;26;19996;-68
2024/04/13 12:59:33;;;;;;;21.20;5.75;;;;;;;;;;5381452;26;20064;-67
2024/04/13 13:01:59;;;;;;;15.90;4.53;;;;;;;;;;5381240;26;20457;-68
2024/04/13 13:04:24;;;;;;;17.85;5.35;;;;;;;;;;5381472;26;20032;-68
2024/04/13 13:06:50;;;;;;;16.27;4.10;;;;;;;;;;5381522;26;20023;-67
2024/04/13 13:09:15;;;;;;;17.60;6.55;;;;;;;;;;5382891;26;20045;-67
2024/04/13 13:11:40;;;;;;;12.63;4.30;;;;;;;;;;5384264;26;19996;-67
2024/04/13 13:14:06;;;;;;;19.88;4.63;;;;;;;;;;5383134;26;20080;-67
2024/04/13 13:16:31;;;;;;;15.88;4.90;;;;;;;;;;5384494;26;19996;-68
2024/04/13 13:18:56;;;;;;;14.50;4.93;;;;;;;;;;5382349;26;20000;-68
2024/04/13 13:21:21;;;;;;;24.73;5.13;;;;;;;;;;5384628;26;20007;-67
2024/04/13 13:23:47;;;;;;;17.27;5.18;;;;;;;;;;5384226;26;20038;-67
2024/04/13 13:26:12;;;;;;;21.13;5.43;;;;;;;;;;5382888;26;20474;-67
2024/04/13 13:28:37;;;;;;;15.88;5.00;;;;;;;;;;5384510;26;20030;-68
2024/04/13 13:31:03;;;;;;;25.52;6.93;;;;;;;;;;5353683;26;20440;-68
2024/04/13 13:33:28;;;;;;;23.67;5.15;;;;;;;;;;5384740;26;20103;-68
2024/04/13 13:35:53;;;;;;;22.67;5.32;;;;;;;;;;5384408;26;19992;-68
2024/04/13 13:38:20;;;;;;;18.08;5.82;;;;;;;;;;5383588;26;20012;-68
2024/04/13 13:40:45;;;;;;;22.00;5.65;;;;;;;;;;5353568;26;20064;-68
2024/04/13 13:43:11;;;;;;;16.90;6.30;;;;;;;;;;5383477;26;20043;-68
2024/04/13 13:45:36;;;;;;;21.05;6.30;;;;;;;;;;5382259;26;20004;-68
2024/04/13 13:48:01;;;;;;;18.95;6.05;;;;;;;;;;5383957;26;20003;-68
2024/04/13 13:50:27;;;;;;;17.95;8.63;;;;;;;;;;5383892;26;20377;-67
2024/04/13 13:52:52;;;;;;;21.83;5.97;;;;;;;;;;5382648;26;20040;-68
2024/04/13 13:55:17;;;;;;;15.32;5.40;;;;;;;;;;5384116;26;20012;-68
2024/04/13 13:57:43;;;;;;;11.93;5.35;;;;;;;;;;5352586;26;20000;-67
2024/04/13 14:00:09;;;;;;;19.45;6.22;;;;;;;;;;5384043;26;20000;-67
2024/04/13 14:02:35;;;;;;;20.77;6.55;;;;;;;;;;5384210;26;20008;-68
2024/04/13 14:05:00;;;;;;;13.88;5.88;;;;;;;;;;5381802;26;20453;-68
2024/04/13 14:07:25;;;;;;;11.82;5.60;;;;;;;;;;5384224;26;19996;-68
2024/04/13 14:09:51;;;;;;;12.05;5.32;;;;;;;;;;5383077;26;20007;-68
2024/04/13 14:12:16;;;;;;;15.45;6.32;;;;;;;;;;5383440;26;20007;-68
2024/04/13 14:14:41;;;;;;;11.65;5.60;;;;;;;;;;5383854;26;19992;-68
2024/04/13 14:17:07;;;;;;;14.45;6.20;;;;;;;;;;5384119;26;19988;-68